sensor_id;sensor_type;location;lat;lon;timestamp;temperature;humidity
11264;DHT22;5689;48.798;9.070;2023-07-30T00:01:16;16.30;99.90
11264;DHT22;5689;48.798;9.070;2023-07-30T00:03:44;16.30;99.90
11264;DHT22;5689;48.798;9.070;2023-07-30T00:06:12;16.30;99.90
11264;DHT22;5689;48.798;9.070;2023-07-30T00:08:41;16.30;99.90
11264;DHT22;5689;48.798;9.070;2023-07-30T00:11:09;16.30;99.90
11264;DHT22;5689;48.798;9.070;2023-07-30T00:13:37;16.40;99.90
11264;DHT22;5689;48.798;9.070;2023-07-30T00:16:05;16.40;99.90
11264;DHT22;5689;48.798;9.070;2023-07-30T00:18:33;16.40;99.90
11264;DHT22;5689;48.798;9.070;2023-07-30T00:21:01;16.40;99.90
11264;DHT22;5689;48.798;9.070;2023-07-30T00:23:29;16.40;99.90
11264;DHT22;5689;48.798;9.070;2023-07-30T00:25:58;16.40;99.90
11264;DHT22;5689;48.798;9.070;2023-07-30T00:28:26;16.20;99.90
11264;DHT22;5689;48.798;9.070;2023-07-30T00:30:54;16.20;99.90
11264;DHT22;5689;48.798;9.070;2023-07-30T00:33:22;16.20;99.90
11264;DHT22;5689;48.798;9.070;2023-07-30T00:35:51;16.30;99.90
11264;DHT22;5689;48.798;9.070;2023-07-30T00:38:19;16.50;99.90
11264;DHT22;5689;48.798;9.070;2023-07-30T00:40:47;16.50;99.90
11264;DHT22;5689;48.798;9.070;2023-07-30T00:43:16;16.60;99.90
11264;DHT22;5689;48.798;9.070;2023-07-30T00:45:44;16.60;99.90
11264;DHT22;5689;48.798;9.070;2023-07-30T00:48:13;16.60;99.90
11264;DHT22;5689;48.798;9.070;2023-07-30T00:50:42;16.60;99.90
11264;DHT22;5689;48.798;9.070;2023-07-30T00:53:11;16.60;99.90
11264;DHT22;5689;48.798;9.070;2023-07-30T00:55:41;16.70;99.90
11264;DHT22;5689;48.798;9.070;2023-07-30T00:58:10;16.70;99.90
11264;DHT22;5689;48.798;9.070;2023-07-30T01:00:40;16.80;99.90
11264;DHT22;5689;48.798;9.070;2023-07-30T01:03:09;16.80;99.90
11264;DHT22;5689;48.798;9.070;2023-07-30T01:05:37;16.90;99.90
11264;DHT22;5689;48.798;9.070;2023-07-30T01:08:05;17.00;99.90
11264;DHT22;5689;48.798;9.070;2023-07-30T01:10:34;17.00;99.90
11264;DHT22;5689;48.798;9.070;2023-07-30T01:13:03;17.00;99.90
11264;DHT22;5689;48.798;9.070;2023-07-30T01:15:32;17.10;99.90
11264;DHT22;5689;48.798;9.070;2023-07-30T01:18:01;17.10;99.90
11264;DHT22;5689;48.798;9.070;2023-07-30T01:20:30;17.00;99.90
11264;DHT22;5689;48.798;9.070;2023-07-30T01:22:59;17.10;99.90
11264;DHT22;5689;48.798;9.070;2023-07-30T01:25:29;17.20;99.90
11264;DHT22;5689;48.798;9.070;2023-07-30T01:28:00;17.30;99.90
11264;DHT22;5689;48.798;9.070;2023-07-30T01:30:31;17.30;99.90
11264;DHT22;5689;48.798;9.070;2023-07-30T01:33:00;17.40;99.90
11264;DHT22;5689;48.798;9.070;2023-07-30T01:35:30;17.30;99.90
11264;DHT22;5689;48.798;9.070;2023-07-30T01:38:00;17.20;99.90
11264;DHT22;5689;48.798;9.070;2023-07-30T01:40:30;17.20;99.90
11264;DHT22;5689;48.798;9.070;2023-07-30T01:42:58;17.20;99.90
11264;DHT22;5689;48.798;9.070;2023-07-30T01:45:27;17.10;99.90
11264;DHT22;5689;48.798;9.070;2023-07-30T01:47:54;17.00;99.90
11264;DHT22;5689;48.798;9.070;2023-07-30T01:50:22;17.00;99.90
11264;DHT22;5689;48.798;9.070;2023-07-30T01:52:50;17.00;99.90
11264;DHT22;5689;48.798;9.070;2023-07-30T01:55:20;17.10;99.90
11264;DHT22;5689;48.798;9.070;2023-07-30T01:57:48;17.10;99.90
11264;DHT22;5689;48.798;9.070;2023-07-30T02:00:16;17.10;99.90
11264;DHT22;5689;48.798;9.070;2023-07-30T02:02:44;17.10;99.90
11264;DHT22;5689;48.798;9.070;2023-07-30T02:05:12;17.20;99.90
11264;DHT22;5689;48.798;9.070;2023-07-30T02:07:43;17.20;99.90
11264;DHT22;5689;48.798;9.070;2023-07-30T02:10:11;17.20;99.90
11264;DHT22;5689;48.798;9.070;2023-07-30T02:12:41;17.20;99.90
11264;DHT22;5689;48.798;9.070;2023-07-30T02:15:09;17.20;99.90
11264;DHT22;5689;48.798;9.070;2023-07-30T02:17:37;17.20;99.90
11264;DHT22;5689;48.798;9.070;2023-07-30T02:20:06;17.20;99.90
11264;DHT22;5689;48.798;9.070;2023-07-30T02:22:35;17.20;99.90
11264;DHT22;5689;48.798;9.070;2023-07-30T02:25:04;17.30;99.90
11264;DHT22;5689;48.798;9.070;2023-07-30T02:27:32;17.30;99.90
11264;DHT22;5689;48.798;9.070;2023-07-30T02:30:01;17.20;99.90
11264;DHT22;5689;48.798;9.070;2023-07-30T02:32:29;17.20;99.90
11264;DHT22;5689;48.798;9.070;2023-07-30T02:34:57;17.10;99.90
11264;DHT22;5689;48.798;9.070;2023-07-30T02:37:25;17.20;99.90
11264;DHT22;5689;48.798;9.070;2023-07-30T02:39:53;17.10;99.90
11264;DHT22;5689;48.798;9.070;2023-07-30T02:42:21;17.10;99.90
11264;DHT22;5689;48.798;9.070;2023-07-30T02:44:48;17.10;99.90
11264;DHT22;5689;48.798;9.070;2023-07-30T02:47:18;17.10;99.90
11264;DHT22;5689;48.798;9.070;2023-07-30T02:49:46;17.10;99.90
11264;DHT22;5689;48.798;9.070;2023-07-30T02:52:14;17.10;99.90
11264;DHT22;5689;48.798;9.070;2023-07-30T02:54:42;17.10;99.90
11264;DHT22;5689;48.798;9.070;2023-07-30T02:57:10;17.10;99.90
11264;DHT22;5689;48.798;9.070;2023-07-30T02:59:39;17.10;99.90
11264;DHT22;5689;48.798;9.070;2023-07-30T03:02:07;17.10;99.90
11264;DHT22;5689;48.798;9.070;2023-07-30T03:04:37;17.10;99.90
11264;DHT22;5689;48.798;9.070;2023-07-30T03:07:05;17.10;99.90
11264;DHT22;5689;48.798;9.070;2023-07-30T03:09:33;17.20;99.90
11264;DHT22;5689;48.798;9.070;2023-07-30T03:12:01;17.20;99.90
11264;DHT22;5689;48.798;9.070;2023-07-30T03:14:29;17.20;99.90
11264;DHT22;5689;48.798;9.070;2023-07-30T03:16:58;17.30;99.90
11264;DHT22;5689;48.798;9.070;2023-07-30T03:19:26;17.30;99.90
11264;DHT22;5689;48.798;9.070;2023-07-30T03:21:55;17.40;99.90
11264;DHT22;5689;48.798;9.070;2023-07-30T03:24:23;17.40;99.90
11264;DHT22;5689;48.798;9.070;2023-07-30T03:26:51;17.40;99.90
11264;DHT22;5689;48.798;9.070;2023-07-30T03:29:19;17.40;99.90
11264;DHT22;5689;48.798;9.070;2023-07-30T03:31:47;17.40;99.90
11264;DHT22;5689;48.798;9.070;2023-07-30T03:34:15;17.50;99.90
11264;DHT22;5689;48.798;9.070;2023-07-30T03:36:43;17.50;99.90
11264;DHT22;5689;48.798;9.070;2023-07-30T03:39:12;17.50;99.90
11264;DHT22;5689;48.798;9.070;2023-07-30T03:41:40;17.60;99.90
11264;DHT22;5689;48.798;9.070;2023-07-30T03:44:11;17.60;99.90
11264;DHT22;5689;48.798;9.070;2023-07-30T03:46:39;17.60;99.90
11264;DHT22;5689;48.798;9.070;2023-07-30T03:49:07;17.60;99.90
11264;DHT22;5689;48.798;9.070;2023-07-30T03:51:35;17.70;99.90
11264;DHT22;5689;48.798;9.070;2023-07-30T03:54:05;17.60;99.90
11264;DHT22;5689;48.798;9.070;2023-07-30T03:56:34;17.60;99.90
11264;DHT22;5689;48.798;9.070;2023-07-30T03:59:02;17.50;99.90
11264;DHT22;5689;48.798;9.070;2023-07-30T04:01:30;17.50;99.90
11264;DHT22;5689;48.798;9.070;2023-07-30T04:03:58;17.50;99.90
11264;DHT22;5689;48.798;9.070;2023-07-30T04:06:26;17.40;99.90
11264;DHT22;5689;48.798;9.070;2023-07-30T04:08:54;17.40;99.90
11264;DHT22;5689;48.798;9.070;2023-07-30T04:11:22;17.40;99.90
11264;DHT22;5689;48.798;9.070;2023-07-30T04:13:52;17.40;99.90
11264;DHT22;5689;48.798;9.070;2023-07-30T04:16:20;17.40;99.90
11264;DHT22;5689;48.798;9.070;2023-07-30T04:18:47;17.30;99.90
11264;DHT22;5689;48.798;9.070;2023-07-30T04:21:15;17.40;99.90
11264;DHT22;5689;48.798;9.070;2023-07-30T04:23:44;17.40;99.90
11264;DHT22;5689;48.798;9.070;2023-07-30T04:26:12;17.40;99.90
11264;DHT22;5689;48.798;9.070;2023-07-30T04:28:40;17.30;99.90
11264;DHT22;5689;48.798;9.070;2023-07-30T04:31:09;17.30;99.90
11264;DHT22;5689;48.798;9.070;2023-07-30T04:33:37;17.30;99.90
11264;DHT22;5689;48.798;9.070;2023-07-30T04:36:07;17.30;99.90
11264;DHT22;5689;48.798;9.070;2023-07-30T04:38:35;17.40;99.90
11264;DHT22;5689;48.798;9.070;2023-07-30T04:41:03;17.40;99.90
11264;DHT22;5689;48.798;9.070;2023-07-30T04:43:36;17.40;99.90
11264;DHT22;5689;48.798;9.070;2023-07-30T04:46:04;17.50;99.90
11264;DHT22;5689;48.798;9.070;2023-07-30T04:48:34;17.50;99.90
11264;DHT22;5689;48.798;9.070;2023-07-30T04:51:02;17.60;99.90
11264;DHT22;5689;48.798;9.070;2023-07-30T04:53:31;17.60;99.90
11264;DHT22;5689;48.798;9.070;2023-07-30T04:55:59;17.60;99.90
11264;DHT22;5689;48.798;9.070;2023-07-30T04:58:27;17.70;99.90
11264;DHT22;5689;48.798;9.070;2023-07-30T05:00:55;17.70;99.90
11264;DHT22;5689;48.798;9.070;2023-07-30T05:03:23;17.60;99.90
11264;DHT22;5689;48.798;9.070;2023-07-30T05:05:53;17.70;99.90
11264;DHT22;5689;48.798;9.070;2023-07-30T05:08:21;17.70;99.90
11264;DHT22;5689;48.798;9.070;2023-07-30T05:10:49;17.70;99.90
11264;DHT22;5689;48.798;9.070;2023-07-30T05:13:17;17.70;99.90
11264;DHT22;5689;48.798;9.070;2023-07-30T05:15:45;17.60;99.90
11264;DHT22;5689;48.798;9.070;2023-07-30T05:18:13;17.70;99.90
11264;DHT22;5689;48.798;9.070;2023-07-30T05:20:41;17.80;99.90
11264;DHT22;5689;48.798;9.070;2023-07-30T05:23:10;17.70;99.90
11264;DHT22;5689;48.798;9.070;2023-07-30T05:25:38;17.70;99.90
11264;DHT22;5689;48.798;9.070;2023-07-30T05:28:06;17.60;99.90
11264;DHT22;5689;48.798;9.070;2023-07-30T05:30:34;17.60;99.90
11264;DHT22;5689;48.798;9.070;2023-07-30T05:33:02;17.50;99.90
11264;DHT22;5689;48.798;9.070;2023-07-30T05:35:30;17.50;99.90
11264;DHT22;5689;48.798;9.070;2023-07-30T05:37:59;17.60;99.90
11264;DHT22;5689;48.798;9.070;2023-07-30T05:40:28;17.60;99.90
11264;DHT22;5689;48.798;9.070;2023-07-30T05:42:56;17.70;99.90
11264;DHT22;5689;48.798;9.070;2023-07-30T05:45:24;17.80;99.90
11264;DHT22;5689;48.798;9.070;2023-07-30T05:47:52;17.80;99.90
11264;DHT22;5689;48.798;9.070;2023-07-30T05:50:20;17.80;99.90
11264;DHT22;5689;48.798;9.070;2023-07-30T05:52:48;17.80;99.90
11264;DHT22;5689;48.798;9.070;2023-07-30T05:55:16;17.80;99.90
11264;DHT22;5689;48.798;9.070;2023-07-30T05:57:45;17.80;99.90
11264;DHT22;5689;48.798;9.070;2023-07-30T06:00:13;17.90;99.90
11264;DHT22;5689;48.798;9.070;2023-07-30T06:02:41;18.00;99.90
11264;DHT22;5689;48.798;9.070;2023-07-30T06:05:09;18.20;99.90
11264;DHT22;5689;48.798;9.070;2023-07-30T06:07:37;18.50;99.90
11264;DHT22;5689;48.798;9.070;2023-07-30T06:10:06;18.50;99.90
11264;DHT22;5689;48.798;9.070;2023-07-30T06:12:34;18.70;99.90
11264;DHT22;5689;48.798;9.070;2023-07-30T06:15:06;18.70;99.90
11264;DHT22;5689;48.798;9.070;2023-07-30T06:17:34;18.80;99.90
11264;DHT22;5689;48.798;9.070;2023-07-30T06:20:02;18.70;99.90
11264;DHT22;5689;48.798;9.070;2023-07-30T06:22:30;18.70;99.90
11264;DHT22;5689;48.798;9.070;2023-07-30T06:24:58;18.60;99.90
11264;DHT22;5689;48.798;9.070;2023-07-30T06:27:26;18.40;99.90
11264;DHT22;5689;48.798;9.070;2023-07-30T06:29:54;18.20;99.90
11264;DHT22;5689;48.798;9.070;2023-07-30T06:32:24;18.40;99.90
11264;DHT22;5689;48.798;9.070;2023-07-30T06:34:51;18.80;99.90
11264;DHT22;5689;48.798;9.070;2023-07-30T06:37:19;19.50;99.90
11264;DHT22;5689;48.798;9.070;2023-07-30T06:39:47;20.30;99.90
11264;DHT22;5689;48.798;9.070;2023-07-30T06:42:15;21.10;99.90
11264;DHT22;5689;48.798;9.070;2023-07-30T06:44:43;21.50;99.90
11264;DHT22;5689;48.798;9.070;2023-07-30T06:47:11;21.00;99.90
11264;DHT22;5689;48.798;9.070;2023-07-30T06:49:41;20.60;99.90
11264;DHT22;5689;48.798;9.070;2023-07-30T06:52:09;20.50;99.90
11264;DHT22;5689;48.798;9.070;2023-07-30T06:54:37;20.30;99.90
11264;DHT22;5689;48.798;9.070;2023-07-30T06:57:06;20.10;99.90
11264;DHT22;5689;48.798;9.070;2023-07-30T06:59:34;19.90;99.90
11264;DHT22;5689;48.798;9.070;2023-07-30T07:02:02;19.90;99.90
11264;DHT22;5689;48.798;9.070;2023-07-30T07:04:31;19.90;99.90
11264;DHT22;5689;48.798;9.070;2023-07-30T07:07:01;19.80;99.90
11264;DHT22;5689;48.798;9.070;2023-07-30T07:09:30;19.70;99.90
11264;DHT22;5689;48.798;9.070;2023-07-30T07:11:58;19.60;99.90
11264;DHT22;5689;48.798;9.070;2023-07-30T07:14:26;19.60;99.90
11264;DHT22;5689;48.798;9.070;2023-07-30T07:16:55;19.60;99.90
11264;DHT22;5689;48.798;9.070;2023-07-30T07:19:23;19.70;99.90
11264;DHT22;5689;48.798;9.070;2023-07-30T07:21:51;19.60;99.90
11264;DHT22;5689;48.798;9.070;2023-07-30T07:24:20;19.50;99.90
11264;DHT22;5689;48.798;9.070;2023-07-30T07:26:48;19.30;99.90
11264;DHT22;5689;48.798;9.070;2023-07-30T07:29:17;18.80;99.90
11264;DHT22;5689;48.798;9.070;2023-07-30T07:31:45;18.40;99.90
11264;DHT22;5689;48.798;9.070;2023-07-30T07:34:13;18.20;99.90
11264;DHT22;5689;48.798;9.070;2023-07-30T07:36:41;18.20;99.90
11264;DHT22;5689;48.798;9.070;2023-07-30T07:39:09;18.20;99.90
11264;DHT22;5689;48.798;9.070;2023-07-30T07:41:39;18.10;99.90
11264;DHT22;5689;48.798;9.070;2023-07-30T07:44:07;18.20;99.90
11264;DHT22;5689;48.798;9.070;2023-07-30T07:46:35;18.20;99.90
11264;DHT22;5689;48.798;9.070;2023-07-30T07:49:03;18.30;99.90
11264;DHT22;5689;48.798;9.070;2023-07-30T07:51:32;18.40;99.90
11264;DHT22;5689;48.798;9.070;2023-07-30T07:54:00;18.40;99.90
11264;DHT22;5689;48.798;9.070;2023-07-30T07:56:29;18.50;99.90
11264;DHT22;5689;48.798;9.070;2023-07-30T07:58:58;18.60;99.90
11264;DHT22;5689;48.798;9.070;2023-07-30T08:01:26;18.80;99.90
11264;DHT22;5689;48.798;9.070;2023-07-30T08:03:55;19.10;99.90
11264;DHT22;5689;48.798;9.070;2023-07-30T08:06:23;19.50;99.90
11264;DHT22;5689;48.798;9.070;2023-07-30T08:08:51;19.80;99.90
11264;DHT22;5689;48.798;9.070;2023-07-30T08:11:19;20.20;99.90
11264;DHT22;5689;48.798;9.070;2023-07-30T08:13:47;20.30;99.90
11264;DHT22;5689;48.798;9.070;2023-07-30T08:16:16;20.50;99.90
11264;DHT22;5689;48.798;9.070;2023-07-30T08:18:44;20.60;99.90
11264;DHT22;5689;48.798;9.070;2023-07-30T08:21:13;20.90;99.90
11264;DHT22;5689;48.798;9.070;2023-07-30T08:23:45;21.20;99.90
11264;DHT22;5689;48.798;9.070;2023-07-30T08:26:13;21.20;99.90
11264;DHT22;5689;48.798;9.070;2023-07-30T08:28:41;21.50;99.90
11264;DHT22;5689;48.798;9.070;2023-07-30T08:31:09;21.40;99.90
11264;DHT22;5689;48.798;9.070;2023-07-30T08:33:39;21.50;99.90
11264;DHT22;5689;48.798;9.070;2023-07-30T08:36:06;21.30;99.90
11264;DHT22;5689;48.798;9.070;2023-07-30T08:38:34;21.70;99.90
11264;DHT22;5689;48.798;9.070;2023-07-30T08:41:02;21.90;99.90
11264;DHT22;5689;48.798;9.070;2023-07-30T08:43:31;22.20;99.90
11264;DHT22;5689;48.798;9.070;2023-07-30T08:45:59;22.60;99.90
11264;DHT22;5689;48.798;9.070;2023-07-30T08:48:28;23.20;99.90
11264;DHT22;5689;48.798;9.070;2023-07-30T08:50:58;22.70;99.90
11264;DHT22;5689;48.798;9.070;2023-07-30T08:53:26;22.50;99.90
11264;DHT22;5689;48.798;9.070;2023-07-30T08:55:54;23.10;99.90
11264;DHT22;5689;48.798;9.070;2023-07-30T08:58:25;23.70;99.90
11264;DHT22;5689;48.798;9.070;2023-07-30T09:00:53;23.40;99.90
11264;DHT22;5689;48.798;9.070;2023-07-30T09:03:23;22.60;99.90
11264;DHT22;5689;48.798;9.070;2023-07-30T09:05:52;22.10;99.90
11264;DHT22;5689;48.798;9.070;2023-07-30T09:08:21;22.00;99.90
11264;DHT22;5689;48.798;9.070;2023-07-30T09:10:50;21.80;99.90
11264;DHT22;5689;48.798;9.070;2023-07-30T09:13:21;21.90;99.90
11264;DHT22;5689;48.798;9.070;2023-07-30T09:15:50;21.70;99.90
11264;DHT22;5689;48.798;9.070;2023-07-30T09:18:18;21.50;99.90
11264;DHT22;5689;48.798;9.070;2023-07-30T09:20:46;22.00;99.90
11264;DHT22;5689;48.798;9.070;2023-07-30T09:23:14;22.00;99.90
11264;DHT22;5689;48.798;9.070;2023-07-30T09:25:47;21.80;99.90
11264;DHT22;5689;48.798;9.070;2023-07-30T09:28:18;21.70;99.90
11264;DHT22;5689;48.798;9.070;2023-07-30T09:30:49;21.40;99.90
11264;DHT22;5689;48.798;9.070;2023-07-30T09:33:19;21.20;99.90
11264;DHT22;5689;48.798;9.070;2023-07-30T09:35:49;20.80;99.90
11264;DHT22;5689;48.798;9.070;2023-07-30T09:38:18;21.10;99.90
11264;DHT22;5689;48.798;9.070;2023-07-30T09:40:48;20.70;99.90
11264;DHT22;5689;48.798;9.070;2023-07-30T09:43:17;20.90;99.90
11264;DHT22;5689;48.798;9.070;2023-07-30T09:45:46;20.70;99.90
11264;DHT22;5689;48.798;9.070;2023-07-30T09:48:15;20.50;99.90
11264;DHT22;5689;48.798;9.070;2023-07-30T09:50:43;20.70;99.90
11264;DHT22;5689;48.798;9.070;2023-07-30T09:53:13;20.50;99.90
11264;DHT22;5689;48.798;9.070;2023-07-30T09:55:42;20.70;99.90
11264;DHT22;5689;48.798;9.070;2023-07-30T09:58:12;21.20;99.90
11264;DHT22;5689;48.798;9.070;2023-07-30T10:00:41;21.20;99.90
11264;DHT22;5689;48.798;9.070;2023-07-30T10:03:12;21.40;99.90
11264;DHT22;5689;48.798;9.070;2023-07-30T10:05:44;21.90;99.90
11264;DHT22;5689;48.798;9.070;2023-07-30T10:08:16;22.60;99.90
11264;DHT22;5689;48.798;9.070;2023-07-30T10:10:46;23.50;99.90
11264;DHT22;5689;48.798;9.070;2023-07-30T10:13:17;24.10;99.90
11264;DHT22;5689;48.798;9.070;2023-07-30T10:15:46;23.90;99.90
11264;DHT22;5689;48.798;9.070;2023-07-30T10:18:14;23.50;99.90
11264;DHT22;5689;48.798;9.070;2023-07-30T10:20:51;23.00;99.90
11264;DHT22;5689;48.798;9.070;2023-07-30T10:23:20;23.40;99.90
11264;DHT22;5689;48.798;9.070;2023-07-30T10:25:49;23.80;99.90
11264;DHT22;5689;48.798;9.070;2023-07-30T10:28:31;24.50;99.90
11264;DHT22;5689;48.798;9.070;2023-07-30T10:31:01;25.30;99.90
11264;DHT22;5689;48.798;9.070;2023-07-30T10:33:47;25.20;99.90
11264;DHT22;5689;48.798;9.070;2023-07-30T10:36:18;24.50;99.90
11264;DHT22;5689;48.798;9.070;2023-07-30T10:38:46;25.60;99.90
11264;DHT22;5689;48.798;9.070;2023-07-30T10:41:15;24.60;99.90
11264;DHT22;5689;48.798;9.070;2023-07-30T10:43:47;24.40;99.90
11264;DHT22;5689;48.798;9.070;2023-07-30T10:46:17;25.00;99.90
11264;DHT22;5689;48.798;9.070;2023-07-30T10:48:47;26.00;99.90
11264;DHT22;5689;48.798;9.070;2023-07-30T10:51:16;26.90;97.20
11264;DHT22;5689;48.798;9.070;2023-07-30T10:53:45;26.60;98.00
11264;DHT22;5689;48.798;9.070;2023-07-30T10:56:15;27.50;96.90
11264;DHT22;5689;48.798;9.070;2023-07-30T10:58:49;29.10;94.50
11264;DHT22;5689;48.798;9.070;2023-07-30T11:01:17;26.40;96.30
11264;DHT22;5689;48.798;9.070;2023-07-30T11:03:48;24.70;96.80
11264;DHT22;5689;48.798;9.070;2023-07-30T11:06:21;23.70;99.00
11264;DHT22;5689;48.798;9.070;2023-07-30T11:08:50;22.90;98.90
11264;DHT22;5689;48.798;9.070;2023-07-30T11:11:18;22.70;99.90
11264;DHT22;5689;48.798;9.070;2023-07-30T11:13:47;22.60;99.90
11264;DHT22;5689;48.798;9.070;2023-07-30T11:16:16;22.40;99.90
11264;DHT22;5689;48.798;9.070;2023-07-30T11:18:44;21.80;99.90
11264;DHT22;5689;48.798;9.070;2023-07-30T11:21:15;22.00;99.90
11264;DHT22;5689;48.798;9.070;2023-07-30T11:23:45;21.70;99.90
11264;DHT22;5689;48.798;9.070;2023-07-30T11:26:15;21.70;99.90
11264;DHT22;5689;48.798;9.070;2023-07-30T11:28:44;22.10;99.90
11264;DHT22;5689;48.798;9.070;2023-07-30T11:31:15;23.20;99.90
11264;DHT22;5689;48.798;9.070;2023-07-30T11:33:45;24.30;99.90
11264;DHT22;5689;48.798;9.070;2023-07-30T11:36:15;26.10;99.90
11264;DHT22;5689;48.798;9.070;2023-07-30T11:38:45;26.40;98.00
11264;DHT22;5689;48.798;9.070;2023-07-30T11:41:13;25.20;98.10
11264;DHT22;5689;48.798;9.070;2023-07-30T11:43:43;25.30;99.80
11264;DHT22;5689;48.798;9.070;2023-07-30T11:46:14;26.50;97.80
11264;DHT22;5689;48.798;9.070;2023-07-30T11:48:44;25.10;98.40
11264;DHT22;5689;48.798;9.070;2023-07-30T11:51:20;24.00;99.90
11264;DHT22;5689;48.798;9.070;2023-07-30T11:53:49;25.20;98.70
11264;DHT22;5689;48.798;9.070;2023-07-30T11:56:19;25.50;97.50
11264;DHT22;5689;48.798;9.070;2023-07-30T11:58:49;25.60;96.70
11264;DHT22;5689;48.798;9.070;2023-07-30T12:01:19;28.10;95.10
11264;DHT22;5689;48.798;9.070;2023-07-30T12:03:47;28.00;93.80
11264;DHT22;5689;48.798;9.070;2023-07-30T12:06:15;29.30;92.40
11264;DHT22;5689;48.798;9.070;2023-07-30T12:08:42;27.70;92.50
11264;DHT22;5689;48.798;9.070;2023-07-30T12:11:10;28.50;90.80
11264;DHT22;5689;48.798;9.070;2023-07-30T12:13:45;29.30;89.00
11264;DHT22;5689;48.798;9.070;2023-07-30T12:16:14;27.30;93.10
11264;DHT22;5689;48.798;9.070;2023-07-30T12:18:44;27.00;93.60
11264;DHT22;5689;48.798;9.070;2023-07-30T12:21:12;26.00;94.80
11264;DHT22;5689;48.798;9.070;2023-07-30T12:23:40;25.30;96.30
11264;DHT22;5689;48.798;9.070;2023-07-30T12:26:08;25.40;94.80
11264;DHT22;5689;48.798;9.070;2023-07-30T12:28:35;24.90;96.50
11264;DHT22;5689;48.798;9.070;2023-07-30T12:31:03;26.10;93.50
11264;DHT22;5689;48.798;9.070;2023-07-30T12:33:32;24.90;94.80
11264;DHT22;5689;48.798;9.070;2023-07-30T12:36:01;25.00;95.50
11264;DHT22;5689;48.798;9.070;2023-07-30T12:38:29;24.70;95.00
11264;DHT22;5689;48.798;9.070;2023-07-30T12:40:57;24.40;96.50
11264;DHT22;5689;48.798;9.070;2023-07-30T12:43:25;24.40;96.50
11264;DHT22;5689;48.798;9.070;2023-07-30T12:45:53;24.40;95.60
11264;DHT22;5689;48.798;9.070;2023-07-30T12:48:21;24.60;96.00
11264;DHT22;5689;48.798;9.070;2023-07-30T12:50:49;24.60;95.80
11264;DHT22;5689;48.798;9.070;2023-07-30T12:53:18;24.10;96.50
11264;DHT22;5689;48.798;9.070;2023-07-30T12:55:46;25.60;94.80
11264;DHT22;5689;48.798;9.070;2023-07-30T12:58:14;25.90;93.60
11264;DHT22;5689;48.798;9.070;2023-07-30T13:00:42;26.50;91.70
11264;DHT22;5689;48.798;9.070;2023-07-30T13:03:10;26.60;92.60
11264;DHT22;5689;48.798;9.070;2023-07-30T13:05:38;26.50;91.00
11264;DHT22;5689;48.798;9.070;2023-07-30T13:08:06;26.50;91.40
11264;DHT22;5689;48.798;9.070;2023-07-30T13:10:38;27.70;90.30
11264;DHT22;5689;48.798;9.070;2023-07-30T13:13:06;26.40;91.40
11264;DHT22;5689;48.798;9.070;2023-07-30T13:15:34;26.10;91.30
11264;DHT22;5689;48.798;9.070;2023-07-30T13:18:03;26.40;90.90
11264;DHT22;5689;48.798;9.070;2023-07-30T13:20:31;26.30;91.20
11264;DHT22;5689;48.798;9.070;2023-07-30T13:22:59;26.30;91.20
11264;DHT22;5689;48.798;9.070;2023-07-30T13:25:27;26.00;91.60
11264;DHT22;5689;48.798;9.070;2023-07-30T13:27:56;24.70;92.50
11264;DHT22;5689;48.798;9.070;2023-07-30T13:30:24;23.80;93.50
11264;DHT22;5689;48.798;9.070;2023-07-30T13:32:53;23.70;93.60
11264;DHT22;5689;48.798;9.070;2023-07-30T13:35:21;23.30;94.20
11264;DHT22;5689;48.798;9.070;2023-07-30T13:37:49;24.60;92.90
11264;DHT22;5689;48.798;9.070;2023-07-30T13:40:17;25.20;92.40
11264;DHT22;5689;48.798;9.070;2023-07-30T13:42:45;24.70;92.50
11264;DHT22;5689;48.798;9.070;2023-07-30T13:45:14;25.40;92.30
11264;DHT22;5689;48.798;9.070;2023-07-30T13:47:42;24.50;92.40
11264;DHT22;5689;48.798;9.070;2023-07-30T13:50:10;25.40;91.90
11264;DHT22;5689;48.798;9.070;2023-07-30T13:52:38;24.60;92.00
11264;DHT22;5689;48.798;9.070;2023-07-30T13:55:07;24.30;92.50
11264;DHT22;5689;48.798;9.070;2023-07-30T13:57:35;25.10;92.30
11264;DHT22;5689;48.798;9.070;2023-07-30T14:00:03;24.20;93.40
11264;DHT22;5689;48.798;9.070;2023-07-30T14:02:35;23.60;93.40
11264;DHT22;5689;48.798;9.070;2023-07-30T14:05:03;23.50;93.50
11264;DHT22;5689;48.798;9.070;2023-07-30T14:07:31;23.20;94.20
11264;DHT22;5689;48.798;9.070;2023-07-30T14:09:59;24.80;92.50
11264;DHT22;5689;48.798;9.070;2023-07-30T14:12:27;25.00;92.40
11264;DHT22;5689;48.798;9.070;2023-07-30T14:14:55;26.20;90.10
11264;DHT22;5689;48.798;9.070;2023-07-30T14:17:23;27.70;85.20
11264;DHT22;5689;48.798;9.070;2023-07-30T14:19:52;26.00;89.40
11264;DHT22;5689;48.798;9.070;2023-07-30T14:22:22;25.80;88.00
11264;DHT22;5689;48.798;9.070;2023-07-30T14:24:50;25.20;90.00
11264;DHT22;5689;48.798;9.070;2023-07-30T14:27:18;26.00;88.40
11264;DHT22;5689;48.798;9.070;2023-07-30T14:29:46;25.70;90.40
11264;DHT22;5689;48.798;9.070;2023-07-30T14:32:14;25.40;90.00
11264;DHT22;5689;48.798;9.070;2023-07-30T14:34:42;25.60;90.30
11264;DHT22;5689;48.798;9.070;2023-07-30T14:37:11;24.50;90.80
11264;DHT22;5689;48.798;9.070;2023-07-30T14:39:39;25.20;91.40
11264;DHT22;5689;48.798;9.070;2023-07-30T14:42:08;26.00;89.20
11264;DHT22;5689;48.798;9.070;2023-07-30T14:44:36;26.40;87.30
11264;DHT22;5689;48.798;9.070;2023-07-30T14:47:04;26.20;88.20
11264;DHT22;5689;48.798;9.070;2023-07-30T14:49:34;25.60;87.70
11264;DHT22;5689;48.798;9.070;2023-07-30T14:52:02;25.40;90.70
11264;DHT22;5689;48.798;9.070;2023-07-30T14:54:32;24.60;90.00
11264;DHT22;5689;48.798;9.070;2023-07-30T14:57:00;24.20;90.30
11264;DHT22;5689;48.798;9.070;2023-07-30T14:59:28;23.30;91.60
11264;DHT22;5689;48.798;9.070;2023-07-30T15:01:56;24.50;90.10
11264;DHT22;5689;48.798;9.070;2023-07-30T15:04:24;25.00;86.60
11264;DHT22;5689;48.798;9.070;2023-07-30T15:06:52;26.10;83.50
11264;DHT22;5689;48.798;9.070;2023-07-30T15:09:20;26.30;83.20
11264;DHT22;5689;48.798;9.070;2023-07-30T15:11:49;27.10;79.90
11264;DHT22;5689;48.798;9.070;2023-07-30T15:14:18;25.50;81.90
11264;DHT22;5689;48.798;9.070;2023-07-30T15:16:46;25.40;82.90
11264;DHT22;5689;48.798;9.070;2023-07-30T15:19:14;24.60;84.50
11264;DHT22;5689;48.798;9.070;2023-07-30T15:21:42;24.50;84.70
11264;DHT22;5689;48.798;9.070;2023-07-30T15:24:10;24.70;83.20
11264;DHT22;5689;48.798;9.070;2023-07-30T15:26:38;23.40;87.10
11264;DHT22;5689;48.798;9.070;2023-07-30T15:29:07;23.10;87.60
11264;DHT22;5689;48.798;9.070;2023-07-30T15:31:35;23.30;88.30
11264;DHT22;5689;48.798;9.070;2023-07-30T15:34:03;23.20;89.50
11264;DHT22;5689;48.798;9.070;2023-07-30T15:36:32;23.50;89.20
11264;DHT22;5689;48.798;9.070;2023-07-30T15:39:00;23.40;87.20
11264;DHT22;5689;48.798;9.070;2023-07-30T15:41:28;22.90;86.10
11264;DHT22;5689;48.798;9.070;2023-07-30T15:43:56;23.00;86.20
11264;DHT22;5689;48.798;9.070;2023-07-30T15:46:25;23.50;86.30
11264;DHT22;5689;48.798;9.070;2023-07-30T15:48:53;23.80;86.10
11264;DHT22;5689;48.798;9.070;2023-07-30T15:51:21;24.10;82.70
11264;DHT22;5689;48.798;9.070;2023-07-30T15:53:50;24.20;81.00